Time;durP1;ratioP1;P1;durP2;ratioP2;P2;SDS_P1;SDS_P2;PMS_P1;PMS_P2;Temp;Humidity;BMP_temperature;BMP_pressure;BME280_temperature;BME280_humidity;BME280_pressure;Samples;Min_cycle;Max_cycle;Signal;HPM_P1;HPM_P2
2022/01/03 00:01:47;;;;;;;;;;;10.50;99.90;;;;;;5068208;27;20156;-72
2022/01/03 00:04:15;;;;;;;;;;;10.50;99.90;;;;;;5068396;27;20058;-73
2022/01/03 00:06:42;;;;;;;;;;;10.40;99.90;;;;;;5068088;27;20050;-73
2022/01/03 00:09:10;;;;;;;;;;;10.40;99.90;;;;;;5067867;27;20150;-73
2022/01/03 00:11:39;;;;;;;;;;;10.40;99.90;;;;;;5068822;27;20059;-73
2022/01/03 00:14:07;;;;;;;;;;;10.40;99.90;;;;;;5068085;27;20050;-73
2022/01/03 00:16:34;;;;;;;;;;;10.40;99.90;;;;;;5068358;27;20054;-72
2022/01/03 00:19:01;;;;;;;;;;;10.40;99.90;;;;;;5067972;27;20085;-73
2022/01/03 00:21:30;;;;;;;;;;;10.40;99.90;;;;;;5067526;27;20064;-72
2022/01/03 00:24:02;;;;;;;;;;;10.40;99.90;;;;;;5068217;27;20057;-73
2022/01/03 00:26:33;;;;;;;;;;;10.40;99.90;;;;;;5068086;27;20058;-71
2022/01/03 00:29:01;;;;;;;;;;;10.40;99.90;;;;;;5067811;27;20066;-74
2022/01/03 00:31:33;;;;;;;;;;;10.50;99.90;;;;;;5067620;27;20074;-73
2022/01/03 00:34:00;;;;;;;;;;;10.40;99.90;;;;;;5067172;27;20059;-73
2022/01/03 00:36:29;;;;;;;;;;;10.20;99.90;;;;;;5067512;27;20065;-72
2022/01/03 00:38:56;;;;;;;;;;;10.10;99.90;;;;;;5067346;27;20072;-74
2022/01/03 00:41:23;;;;;;;;;;;10.10;99.90;;;;;;5067183;27;20059;-73
2022/01/03 00:43:53;;;;;;;;;;;10.10;99.90;;;;;;5066572;27;20076;-73
2022/01/03 00:46:20;;;;;;;;;;;10.10;99.90;;;;;;5067025;27;20056;-73
2022/01/03 00:48:48;;;;;;;;;;;10.00;99.90;;;;;;5066997;27;20083;-74
2022/01/03 00:51:19;;;;;;;;;;;10.00;99.90;;;;;;5067739;27;20058;-73
2022/01/03 00:53:47;;;;;;;;;;;10.00;99.90;;;;;;5065714;27;21041;-73
2022/01/03 00:56:15;;;;;;;;;;;10.00;99.90;;;;;;5067538;27;20059;-73
2022/01/03 00:58:47;;;;;;;;;;;10.00;99.90;;;;;;5066798;27;21082;-73
2022/01/03 01:01:18;;;;;;;;;;;9.90;99.90;;;;;;5067410;27;20087;-73
2022/01/03 01:03:47;;;;;;;;;;;9.90;99.90;;;;;;5066607;27;20087;-73
2022/01/03 01:06:17;;;;;;;;;;;9.90;99.90;;;;;;5066861;27;20076;-73
2022/01/03 01:08:45;;;;;;;;;;;10.00;99.90;;;;;;5066409;27;20105;-73
2022/01/03 01:11:12;;;;;;;;;;;10.00;99.90;;;;;;5067424;27;20070;-73
2022/01/03 01:13:42;;;;;;;;;;;10.00;99.90;;;;;;5066120;27;20067;-73
2022/01/03 01:16:11;;;;;;;;;;;10.00;99.90;;;;;;5066904;27;21146;-73
2022/01/03 01:18:47;;;;;;;;;;;10.00;99.90;;;;;;5066591;27;20192;-73
2022/01/03 01:21:15;;;;;;;;;;;10.00;99.90;;;;;;5066552;27;21233;-73
2022/01/03 01:23:43;;;;;;;;;;;10.10;99.90;;;;;;5065822;27;20065;-74
2022/01/03 01:28:56;;;;;;;;;;;10.10;99.90;;;;;;5083119;27;21207;-73
2022/01/03 01:31:25;;;;;;;;;;;10.10;99.90;;;;;;5067404;27;20067;-73
2022/01/03 01:33:55;;;;;;;;;;;10.10;99.90;;;;;;5065870;28;20082;-73
2022/01/03 01:36:27;;;;;;;;;;;10.20;99.90;;;;;;5066988;27;20059;-73
2022/01/03 01:38:56;;;;;;;;;;;10.20;99.90;;;;;;5066545;28;21212;-73
2022/01/03 01:41:23;;;;;;;;;;;10.10;99.90;;;;;;5067214;28;20168;-73
2022/01/03 01:43:55;;;;;;;;;;;10.10;99.90;;;;;;5065218;28;20058;-73
2022/01/03 01:46:24;;;;;;;;;;;10.10;99.90;;;;;;5066395;28;20063;-73
2022/01/03 01:48:59;;;;;;;;;;;10.20;99.90;;;;;;5065305;28;21284;-73
2022/01/03 01:51:27;;;;;;;;;;;10.20;99.90;;;;;;5066628;28;20085;-73
2022/01/03 01:53:58;;;;;;;;;;;10.30;99.90;;;;;;5065755;28;20078;-73
2022/01/03 01:56:39;;;;;;;;;;;10.20;99.90;;;;;;5066060;28;20064;-73
2022/01/03 01:59:10;;;;;;;;;;;10.20;99.90;;;;;;5066040;28;20057;-73
2022/01/03 02:01:42;;;;;;;;;;;10.20;99.90;;;;;;5066353;28;20065;-73
2022/01/03 02:04:20;;;;;;;;;;;10.10;99.90;;;;;;5083389;28;20070;-73
2022/01/03 02:06:48;;;;;;;;;;;10.10;99.90;;;;;;5065367;28;20072;-73
2022/01/03 02:09:20;;;;;;;;;;;10.00;99.90;;;;;;5065750;28;20159;-73
2022/01/03 02:11:52;;;;;;;;;;;10.00;99.90;;;;;;5066181;28;20059;-72
2022/01/03 02:14:22;;;;;;;;;;;10.10;99.90;;;;;;5066033;28;20276;-73
2022/01/03 02:16:51;;;;;;;;;;;10.10;99.90;;;;;;5083411;28;20058;-73
2022/01/03 02:19:21;;;;;;;;;;;10.10;99.90;;;;;;5065305;28;20163;-73
2022/01/03 02:21:50;;;;;;;;;;;10.00;99.90;;;;;;5065505;28;20288;-70
2022/01/03 02:24:23;;;;;;;;;;;9.90;99.90;;;;;;5065287;28;20148;-73
2022/01/03 02:26:51;;;;;;;;;;;9.90;99.90;;;;;;5066909;27;20058;-73
2022/01/03 02:29:18;;;;;;;;;;;9.90;99.90;;;;;;5068310;27;20251;-73
2022/01/03 02:31:45;;;;;;;;;;;9.80;99.90;;;;;;5069737;27;20072;-73
2022/01/03 02:34:12;;;;;;;;;;;9.90;99.90;;;;;;5069809;27;20057;-73
2022/01/03 02:36:43;;;;;;;;;;;9.90;99.90;;;;;;5070094;27;20063;-73
2022/01/03 02:39:12;;;;;;;;;;;9.90;99.90;;;;;;5069890;27;21253;-73
2022/01/03 02:41:39;;;;;;;;;;;9.90;99.90;;;;;;5070361;27;20058;-73
2022/01/03 02:44:07;;;;;;;;;;;9.70;99.90;;;;;;5069647;27;21119;-73
2022/01/03 02:46:34;;;;;;;;;;;9.70;99.90;;;;;;5069383;27;21153;-73
2022/01/03 02:49:03;;;;;;;;;;;9.70;99.90;;;;;;5069479;27;20090;-73
2022/01/03 02:51:30;;;;;;;;;;;9.70;99.90;;;;;;5069348;27;20231;-73
2022/01/03 02:53:57;;;;;;;;;;;9.80;99.90;;;;;;5068946;27;20058;-73
2022/01/03 02:56:31;;;;;;;;;;;9.80;99.90;;;;;;5053356;28;20095;-73
2022/01/03 02:58:59;;;;;;;;;;;9.90;99.90;;;;;;5063825;27;20144;-73
2022/01/03 03:01:26;;;;;;;;;;;9.90;99.90;;;;;;5071030;27;20058;-73
2022/01/03 03:03:56;;;;;;;;;;;9.90;99.90;;;;;;5070345;27;20067;-69
2022/01/03 03:06:25;;;;;;;;;;;9.90;99.90;;;;;;5071037;27;20119;-73
2022/01/03 03:08:52;;;;;;;;;;;9.90;99.90;;;;;;5070526;27;20057;-73
2022/01/03 03:11:19;;;;;;;;;;;9.80;99.90;;;;;;5071163;27;20274;-73
2022/01/03 03:13:48;;;;;;;;;;;9.80;99.90;;;;;;5070296;27;20058;-73
2022/01/03 03:16:15;;;;;;;;;;;9.80;99.90;;;;;;5070791;27;20058;-73
2022/01/03 03:18:44;;;;;;;;;;;9.80;99.90;;;;;;5070428;27;20080;-73
2022/01/03 03:21:11;;;;;;;;;;;9.90;99.90;;;;;;5070782;27;20059;-73
2022/01/03 03:23:38;;;;;;;;;;;9.80;99.90;;;;;;5069997;27;20048;-71
2022/01/03 03:26:05;;;;;;;;;;;9.80;99.90;;;;;;5070532;27;20066;-73
2022/01/03 03:28:33;;;;;;;;;;;9.80;99.90;;;;;;5070072;27;20164;-73
2022/01/03 03:31:04;;;;;;;;;;;9.70;99.90;;;;;;5070605;27;20057;-73
2022/01/03 03:33:40;;;;;;;;;;;9.70;99.90;;;;;;5069917;27;21066;-72
2022/01/03 03:36:07;;;;;;;;;;;9.70;99.90;;;;;;5070323;27;20050;-73
2022/01/03 03:38:35;;;;;;;;;;;9.70;99.90;;;;;;5069407;27;20266;-73
2022/01/03 03:41:07;;;;;;;;;;;9.70;99.90;;;;;;5070240;27;20063;-73
2022/01/03 03:43:43;;;;;;;;;;;9.70;99.90;;;;;;5068933;27;20058;-72
2022/01/03 03:46:13;;;;;;;;;;;9.70;99.90;;;;;;5070297;27;20226;-72
2022/01/03 03:48:40;;;;;;;;;;;9.70;99.90;;;;;;5069849;27;20059;-73
2022/01/03 03:51:11;;;;;;;;;;;9.70;99.90;;;;;;5054709;28;20051;-71
2022/01/03 03:53:38;;;;;;;;;;;9.70;99.90;;;;;;5068500;27;20105;-73
2022/01/03 03:56:05;;;;;;;;;;;9.70;99.90;;;;;;5070147;27;20059;-73
2022/01/03 03:58:35;;;;;;;;;;;9.80;99.90;;;;;;5069583;27;20272;-73
2022/01/03 04:01:03;;;;;;;;;;;9.70;99.90;;;;;;5070006;27;20057;-73
2022/01/03 04:03:32;;;;;;;;;;;9.80;99.90;;;;;;5069513;27;20064;-73
2022/01/03 04:06:00;;;;;;;;;;;9.80;99.90;;;;;;5086719;27;20171;-72
2022/01/03 04:08:27;;;;;;;;;;;9.80;99.90;;;;;;5069614;27;20122;-73
2022/01/03 04:10:55;;;;;;;;;;;9.80;99.90;;;;;;5070070;27;20189;-72
2022/01/03 04:13:22;;;;;;;;;;;9.80;99.90;;;;;;5069747;27;21131;-73
2022/01/03 04:15:50;;;;;;;;;;;9.80;99.90;;;;;;5069574;27;20058;-73
2022/01/03 04:18:18;;;;;;;;;;;9.80;99.90;;;;;;5069618;27;20057;-73
2022/01/03 04:20:46;;;;;;;;;;;9.90;99.90;;;;;;5069715;27;20171;-73
2022/01/03 04:23:16;;;;;;;;;;;9.90;99.90;;;;;;5069125;27;20050;-73
2022/01/03 04:25:44;;;;;;;;;;;9.80;99.90;;;;;;5069156;27;20235;-72
2022/01/03 04:28:11;;;;;;;;;;;9.80;99.90;;;;;;5069159;27;21070;-72
2022/01/03 04:30:38;;;;;;;;;;;9.80;99.90;;;;;;5069164;27;20257;-73
2022/01/03 04:33:05;;;;;;;;;;;9.80;99.90;;;;;;5068949;27;20059;-72
2022/01/03 04:35:33;;;;;;;;;;;9.80;99.90;;;;;;5069066;27;21105;-73
2022/01/03 04:38:02;;;;;;;;;;;9.80;99.90;;;;;;5068854;27;20058;-73
2022/01/03 04:40:29;;;;;;;;;;;9.80;99.90;;;;;;5069061;27;20050;-71
2022/01/03 04:42:56;;;;;;;;;;;9.80;99.90;;;;;;5068524;27;20301;-73
2022/01/03 04:45:24;;;;;;;;;;;9.70;99.90;;;;;;5069068;27;20251;-72
2022/01/03 04:47:51;;;;;;;;;;;9.70;99.90;;;;;;5068574;27;20153;-72
2022/01/03 04:50:18;;;;;;;;;;;9.70;99.90;;;;;;5068825;28;20058;-72
2022/01/03 04:52:45;;;;;;;;;;;9.60;99.90;;;;;;5068494;27;21174;-72
2022/01/03 04:55:14;;;;;;;;;;;9.70;99.90;;;;;;5068736;27;20147;-73
2022/01/03 04:57:43;;;;;;;;;;;9.80;99.90;;;;;;5068971;27;20278;-73
2022/01/03 05:00:10;;;;;;;;;;;9.80;99.90;;;;;;5069022;27;20064;-73
2022/01/03 05:02:38;;;;;;;;;;;9.90;99.90;;;;;;5068155;27;21145;-75
2022/01/03 05:05:06;;;;;;;;;;;10.00;99.90;;;;;;5069096;27;20090;-72
2022/01/03 05:07:33;;;;;;;;;;;10.00;99.90;;;;;;5069134;27;20205;-73
2022/01/03 05:10:00;;;;;;;;;;;9.90;99.90;;;;;;5069031;27;20074;-73
2022/01/03 05:12:29;;;;;;;;;;;10.00;99.90;;;;;;5069043;27;20058;-71
2022/01/03 05:14:56;;;;;;;;;;;10.00;99.90;;;;;;5068647;27;20059;-73
2022/01/03 05:17:23;;;;;;;;;;;10.00;99.90;;;;;;5068851;27;20221;-73
2022/01/03 05:19:51;;;;;;;;;;;10.00;99.90;;;;;;5068018;27;20147;-73
2022/01/03 05:22:18;;;;;;;;;;;10.00;99.90;;;;;;5067759;27;20176;-73
2022/01/03 05:24:46;;;;;;;;;;;10.00;99.90;;;;;;5067440;27;20065;-73
2022/01/03 05:27:13;;;;;;;;;;;9.90;99.90;;;;;;5068648;27;20057;-72
2022/01/03 05:29:42;;;;;;;;;;;10.00;99.90;;;;;;5067752;27;20058;-73
2022/01/03 05:32:09;;;;;;;;;;;9.90;99.90;;;;;;5068325;28;20085;-72
2022/01/03 05:34:37;;;;;;;;;;;9.90;99.90;;;;;;5068044;28;20073;-72
2022/01/03 05:37:04;;;;;;;;;;;9.80;99.90;;;;;;5068439;27;21079;-73
2022/01/03 05:39:35;;;;;;;;;;;9.90;99.90;;;;;;5068017;28;20050;-73
2022/01/03 05:42:03;;;;;;;;;;;9.80;99.90;;;;;;5067796;28;20058;-73
2022/01/03 05:44:32;;;;;;;;;;;9.80;99.90;;;;;;5068198;28;20253;-73
2022/01/03 05:47:00;;;;;;;;;;;9.80;99.90;;;;;;5068148;28;21192;-72
2022/01/03 05:49:28;;;;;;;;;;;9.80;99.90;;;;;;5067927;28;20139;-72
2022/01/03 05:51:55;;;;;;;;;;;9.90;99.90;;;;;;5068104;28;20064;-73
2022/01/03 05:54:23;;;;;;;;;;;9.80;99.90;;;;;;5068372;28;20066;-72
2022/01/03 05:56:50;;;;;;;;;;;9.70;99.90;;;;;;5068389;28;21006;-73
2022/01/03 05:59:18;;;;;;;;;;;9.70;99.90;;;;;;5067685;28;20269;-73
2022/01/03 06:01:46;;;;;;;;;;;9.70;99.90;;;;;;5059553;28;20147;-72
2022/01/03 06:04:21;;;;;;;;;;;9.80;99.90;;;;;;5030137;28;20281;-73
2022/01/03 06:06:57;;;;;;;;;;;9.90;99.90;;;;;;5049234;28;20085;-73
2022/01/03 06:09:34;;;;;;;;;;;9.90;99.90;;;;;;5048631;28;20059;-73
2022/01/03 06:12:03;;;;;;;;;;;9.90;99.90;;;;;;5047991;28;20059;-73
2022/01/03 06:14:32;;;;;;;;;;;9.90;99.90;;;;;;5031599;28;20273;-73
2022/01/03 06:16:59;;;;;;;;;;;10.00;99.90;;;;;;5048437;28;20181;-73
2022/01/03 06:19:29;;;;;;;;;;;10.00;99.90;;;;;;5031059;28;20187;-73
2022/01/03 06:21:57;;;;;;;;;;;10.00;99.90;;;;;;5048150;28;20241;-73
2022/01/03 06:24:25;;;;;;;;;;;9.90;99.90;;;;;;5048520;28;21038;-73
2022/01/03 06:26:54;;;;;;;;;;;10.00;99.90;;;;;;5048437;28;20274;-73
2022/01/03 06:29:21;;;;;;;;;;;10.00;99.90;;;;;;5048189;28;20058;-73
2022/01/03 06:31:50;;;;;;;;;;;10.00;99.90;;;;;;5048013;28;20057;-73
2022/01/03 06:34:18;;;;;;;;;;;10.00;99.90;;;;;;5047913;28;20103;-73
2022/01/03 06:36:47;;;;;;;;;;;10.00;99.90;;;;;;5048613;28;20289;-73
2022/01/03 06:39:15;;;;;;;;;;;10.10;99.90;;;;;;5051409;28;20178;-72
2022/01/03 06:41:43;;;;;;;;;;;10.10;99.90;;;;;;5062365;27;20075;-73
2022/01/03 06:44:12;;;;;;;;;;;10.00;99.90;;;;;;5071593;27;21228;-73
2022/01/03 06:46:40;;;;;;;;;;;10.00;99.90;;;;;;5072090;27;20068;-72
2022/01/03 06:49:07;;;;;;;;;;;9.90;99.90;;;;;;5071387;27;20160;-73
2022/01/03 06:51:35;;;;;;;;;;;10.00;99.90;;;;;;5071728;27;20456;-74
2022/01/03 06:54:10;;;;;;;;;;;10.00;99.90;;;;;;5070774;27;21059;-73
2022/01/03 06:56:41;;;;;;;;;;;10.00;99.90;;;;;;5070784;27;21148;-73
2022/01/03 06:59:10;;;;;;;;;;;10.00;99.90;;;;;;5060317;27;20075;-74
2022/01/03 07:01:37;;;;;;;;;;;10.00;99.90;;;;;;5058189;28;20180;-72
2022/01/03 07:04:05;;;;;;;;;;;10.00;99.90;;;;;;5047670;28;20098;-74
2022/01/03 07:06:33;;;;;;;;;;;9.90;99.90;;;;;;5049478;28;21119;-74
2022/01/03 07:09:00;;;;;;;;;;;9.90;99.90;;;;;;5048269;28;20067;-74
2022/01/03 07:11:28;;;;;;;;;;;9.80;99.90;;;;;;5037053;28;20059;-74
2022/01/03 07:14:06;;;;;;;;;;;9.80;99.90;;;;;;5027470;28;21144;-74
2022/01/03 07:19:17;;;;;;;;;;;9.80;99.90;;;;;;5027920;28;21038;-77
2022/01/03 07:21:44;;;;;;;;;;;9.70;99.90;;;;;;5030225;28;20076;-73
2022/01/03 07:24:12;;;;;;;;;;;9.80;99.90;;;;;;5046976;28;20057;-74
2022/01/03 07:26:41;;;;;;;;;;;9.80;99.90;;;;;;5046740;28;20147;-73
2022/01/03 07:29:08;;;;;;;;;;;9.80;99.90;;;;;;5051252;27;20111;-73
2022/01/03 07:31:35;;;;;;;;;;;9.80;99.90;;;;;;5054204;28;20624;-73
2022/01/03 07:34:02;;;;;;;;;;;9.80;99.90;;;;;;5055449;28;20058;-73
2022/01/03 07:36:30;;;;;;;;;;;9.70;99.90;;;;;;5066109;27;20067;-73
2022/01/03 07:38:57;;;;;;;;;;;9.50;99.90;;;;;;5067294;27;20058;-74
2022/01/03 07:41:24;;;;;;;;;;;9.40;99.90;;;;;;5068815;27;21240;-73
2022/01/03 07:43:53;;;;;;;;;;;9.30;99.90;;;;;;5067865;27;21179;-73
2022/01/03 07:46:20;;;;;;;;;;;9.30;99.90;;;;;;5068119;27;20050;-74
2022/01/03 07:48:47;;;;;;;;;;;9.20;99.90;;;;;;5067748;27;20078;-70
2022/01/03 07:51:15;;;;;;;;;;;9.20;99.90;;;;;;5068971;27;20151;-74
2022/01/03 07:53:42;;;;;;;;;;;9.20;99.90;;;;;;5067219;27;20092;-72
2022/01/03 07:56:10;;;;;;;;;;;9.20;99.90;;;;;;5068857;27;20066;-73
2022/01/03 07:58:37;;;;;;;;;;;9.20;99.90;;;;;;5067332;27;20074;-73
2022/01/03 08:01:06;;;;;;;;;;;9.20;99.90;;;;;;5068365;27;20067;-74
2022/01/03 08:03:33;;;;;;;;;;;9.20;99.90;;;;;;5059385;27;20159;-74
2022/01/03 08:06:01;;;;;;;;;;;9.20;99.90;;;;;;5055209;28;20147;-73
2022/01/03 08:08:28;;;;;;;;;;;9.20;99.90;;;;;;5065229;27;20073;-73
2022/01/03 08:10:55;;;;;;;;;;;9.30;99.90;;;;;;5057372;27;21029;-73
2022/01/03 08:13:22;;;;;;;;;;;9.40;99.90;;;;;;5068674;27;20282;-73
2022/01/03 08:15:49;;;;;;;;;;;9.40;99.90;;;;;;5069304;27;20057;-73
2022/01/03 08:18:18;;;;;;;;;;;9.50;99.90;;;;;;5069391;27;20177;-73
2022/01/03 08:20:46;;;;;;;;;;;9.50;99.90;;;;;;5070063;27;20066;-73
2022/01/03 08:23:13;;;;;;;;;;;9.60;99.90;;;;;;5069461;27;20221;-73
2022/01/03 08:25:40;;;;;;;;;;;9.60;99.90;;;;;;5069075;27;20058;-73
2022/01/03 08:28:10;;;;;;;;;;;9.70;99.90;;;;;;5069093;27;20057;-73
2022/01/03 08:30:38;;;;;;;;;;;9.80;99.90;;;;;;5069014;27;20050;-73
2022/01/03 08:33:05;;;;;;;;;;;10.00;99.90;;;;;;5068432;27;20062;-73
2022/01/03 08:35:34;;;;;;;;;;;10.10;99.90;;;;;;5068614;27;20215;-73
2022/01/03 08:38:04;;;;;;;;;;;10.10;99.90;;;;;;5068204;27;20127;-73
2022/01/03 08:40:32;;;;;;;;;;;10.20;99.90;;;;;;5069082;27;20059;-73
2022/01/03 08:42:59;;;;;;;;;;;10.30;99.90;;;;;;5068197;27;20241;-74
2022/01/03 08:45:27;;;;;;;;;;;10.40;99.90;;;;;;5058912;28;20160;-70
2022/01/03 08:47:54;;;;;;;;;;;10.40;99.90;;;;;;5056011;28;20241;-71
2022/01/03 08:50:22;;;;;;;;;;;10.40;99.90;;;;;;5048938;28;20065;-74
2022/01/03 08:52:50;;;;;;;;;;;10.50;99.90;;;;;;5049063;28;21139;-73
2022/01/03 08:55:18;;;;;;;;;;;10.60;99.90;;;;;;5048093;28;21159;-70
2022/01/03 08:57:51;;;;;;;;;;;10.60;99.90;;;;;;5054382;28;21171;-73
2022/01/03 09:00:18;;;;;;;;;;;10.60;99.90;;;;;;5064273;27;21041;-74
2022/01/03 09:02:45;;;;;;;;;;;10.70;99.90;;;;;;5066443;27;20996;-74
2022/01/03 09:05:12;;;;;;;;;;;10.60;99.90;;;;;;5065924;28;21073;-74
2022/01/03 09:07:40;;;;;;;;;;;10.60;99.90;;;;;;5056259;28;21109;-73
2022/01/03 09:10:09;;;;;;;;;;;10.70;99.90;;;;;;5048150;28;20051;-75
2022/01/03 09:12:36;;;;;;;;;;;10.70;99.90;;;;;;5028201;28;20051;-75
2022/01/03 09:15:04;;;;;;;;;;;10.70;99.90;;;;;;5027587;28;20167;-74
2022/01/03 09:17:31;;;;;;;;;;;10.70;99.90;;;;;;5027712;28;20059;-74
2022/01/03 09:19:59;;;;;;;;;;;10.70;99.90;;;;;;5026200;28;20067;-72
2022/01/03 09:22:31;;;;;;;;;;;10.70;99.90;;;;;;5026773;28;20052;-72
2022/01/03 09:30:26;;;;;;;;;;;10.70;99.90;;;;;;5025505;28;20065;-73
2022/01/03 09:32:53;;;;;;;;;;;10.70;99.90;;;;;;5025398;28;20059;-73
2022/01/03 09:35:21;;;;;;;;;;;10.70;99.90;;;;;;5026012;28;20068;-73
2022/01/03 09:37:49;;;;;;;;;;;10.70;99.90;;;;;;5025253;28;20261;-71
2022/01/03 09:40:16;;;;;;;;;;;10.80;99.90;;;;;;5026438;28;20096;-74
2022/01/03 09:42:48;;;;;;;;;;;10.80;99.90;;;;;;5026571;28;20087;-73
2022/01/03 09:45:16;;;;;;;;;;;10.80;99.90;;;;;;5026248;28;20775;-74
2022/01/03 09:47:44;;;;;;;;;;;10.80;99.90;;;;;;5042261;28;20108;-73
2022/01/03 09:50:13;;;;;;;;;;;10.80;99.90;;;;;;5052157;28;20058;-73
2022/01/03 09:52:41;;;;;;;;;;;10.90;99.90;;;;;;5056440;28;20074;-74
2022/01/03 09:55:08;;;;;;;;;;;10.90;99.90;;;;;;5066818;28;20075;-74
2022/01/03 09:57:35;;;;;;;;;;;10.90;99.90;;;;;;5067680;28;20270;-74
2022/01/03 10:00:05;;;;;;;;;;;10.90;99.90;;;;;;5066495;28;20059;-75
2022/01/03 10:02:33;;;;;;;;;;;11.00;99.90;;;;;;5066715;28;20129;-73
2022/01/03 10:05:00;;;;;;;;;;;11.00;99.90;;;;;;5083510;28;20095;-75
2022/01/03 10:07:28;;;;;;;;;;;11.00;99.90;;;;;;5065916;28;21161;-70
2022/01/03 10:09:55;;;;;;;;;;;11.10;99.90;;;;;;5047382;28;20219;-75
2022/01/03 10:12:23;;;;;;;;;;;11.10;99.90;;;;;;5042247;28;21252;-74
2022/01/03 10:14:50;;;;;;;;;;;11.20;99.90;;;;;;5045307;28;20058;-74
2022/01/03 10:17:19;;;;;;;;;;;11.20;99.90;;;;;;5049967;28;20103;-74
2022/01/03 10:19:50;;;;;;;;;;;11.20;99.90;;;;;;5047129;28;20059;-74
2022/01/03 10:22:21;;;;;;;;;;;11.10;99.90;;;;;;5044305;28;20073;-74
2022/01/03 10:24:48;;;;;;;;;;;11.10;99.90;;;;;;5044948;28;20295;-74
2022/01/03 10:27:15;;;;;;;;;;;11.10;99.90;;;;;;5045687;28;21131;-74
2022/01/03 10:29:42;;;;;;;;;;;11.00;99.90;;;;;;5044919;28;20059;-74
2022/01/03 10:32:12;;;;;;;;;;;11.00;99.90;;;;;;5043630;28;20059;-74
2022/01/03 10:34:40;;;;;;;;;;;11.00;99.90;;;;;;5045510;28;20050;-74
2022/01/03 10:37:11;;;;;;;;;;;11.00;99.90;;;;;;5045684;28;20050;-74
2022/01/03 10:39:38;;;;;;;;;;;11.10;99.90;;;;;;5044884;28;20081;-74
2022/01/03 10:42:16;;;;;;;;;;;11.30;99.90;;;;;;5044882;28;20231;-74
2022/01/03 10:44:44;;;;;;;;;;;11.50;99.90;;;;;;5061821;28;20103;-75
2022/01/03 10:47:14;;;;;;;;;;;12.00;99.90;;;;;;5062303;28;20059;-75
2022/01/03 10:49:43;;;;;;;;;;;12.10;99.90;;;;;;5063608;28;21040;-75
2022/01/03 10:52:14;;;;;;;;;;;12.10;99.90;;;;;;5047809;28;21170;-75
2022/01/03 10:54:41;;;;;;;;;;;11.80;99.90;;;;;;5050953;27;21196;-74
2022/01/03 10:57:09;;;;;;;;;;;11.60;99.90;;;;;;5070276;27;20076;-74
2022/01/03 10:59:36;;;;;;;;;;;11.50;99.90;;;;;;5067882;27;20285;-74
2022/01/03 11:02:05;;;;;;;;;;;11.30;99.90;;;;;;5052860;27;20084;-74
2022/01/03 11:04:38;;;;;;;;;;;11.10;99.90;;;;;;5065044;28;20067;-74
2022/01/03 11:10:43;;;;;;;;;;;11.00;99.90;;;;;;5067192;28;20060;-74
2022/01/03 11:13:03;;;;;;;;;;;11.00;99.90;;;;;;5029221;28;20047;-74
2022/01/03 11:15:30;;;;;;;;;;;11.00;99.90;;;;;;5028993;28;20059;-74
2022/01/03 11:18:08;;;;;;;;;;;11.00;99.90;;;;;;5044874;28;20077;-74
2022/01/03 11:20:36;;;;;;;;;;;10.90;99.90;;;;;;5028697;28;20104;-74
2022/01/03 11:23:04;;;;;;;;;;;10.90;99.90;;;;;;5028077;28;20067;-73
2022/01/03 11:25:32;;;;;;;;;;;10.80;99.90;;;;;;5027737;28;20141;-74
2022/01/03 11:28:00;;;;;;;;;;;10.80;99.90;;;;;;5027553;28;20099;-73
2022/01/03 11:30:27;;;;;;;;;;;10.90;99.90;;;;;;5028190;28;20060;-74
2022/01/03 11:32:56;;;;;;;;;;;11.00;99.90;;;;;;5027612;28;21134;-73
2022/01/03 11:35:23;;;;;;;;;;;11.20;99.90;;;;;;5045405;28;21200;-73
2022/01/03 11:37:51;;;;;;;;;;;11.20;99.90;;;;;;5027390;28;20062;-73
2022/01/03 11:40:21;;;;;;;;;;;11.20;99.90;;;;;;5028486;28;20058;-74
2022/01/03 11:42:48;;;;;;;;;;;11.10;99.90;;;;;;5044170;28;20057;-73
2022/01/03 11:45:15;;;;;;;;;;;11.20;99.90;;;;;;5044672;28;21108;-74
2022/01/03 11:47:43;;;;;;;;;;;11.20;99.90;;;;;;5044938;28;21176;-73
2022/01/03 11:50:10;;;;;;;;;;;11.20;99.90;;;;;;5027747;28;20097;-74
2022/01/03 11:52:39;;;;;;;;;;;11.20;99.90;;;;;;5027162;28;21143;-74
2022/01/03 11:55:07;;;;;;;;;;;11.10;99.90;;;;;;5028732;28;20075;-73
2022/01/03 11:57:58;;;;;;;;;;;11.10;99.90;;;;;;5047098;27;20073;-73
2022/01/03 12:06:08;;;;;;;;;;;11.00;99.90;;;;;;4995764;28;20059;-70
2022/01/03 12:08:37;;;;;;;;;;;11.00;99.90;;;;;;5040401;28;20065;-75
2022/01/03 12:11:18;;;;;;;;;;;10.90;99.90;;;;;;5040985;28;20075;-75
2022/01/03 12:13:54;;;;;;;;;;;10.80;99.90;;;;;;5027952;28;21020;-74
2022/01/03 12:16:36;;;;;;;;;;;10.80;99.90;;;;;;5028635;28;20068;-74
2022/01/03 12:19:06;;;;;;;;;;;10.90;99.90;;;;;;5027922;28;20079;-74
2022/01/03 12:22:06;;;;;;;;;;;10.90;99.90;;;;;;5045313;27;20606;-74
2022/01/03 12:24:54;;;;;;;;;;;10.90;99.90;;;;;;5048892;28;21112;-74
2022/01/03 12:27:22;;;;;;;;;;;10.90;99.90;;;;;;5042253;28;20074;-73
2022/01/03 12:30:07;;;;;;;;;;;10.90;99.90;;;;;;5048182;28;20059;-74
2022/01/03 12:32:35;;;;;;;;;;;10.90;99.90;;;;;;5066141;28;20051;-75
2022/01/03 12:35:20;;;;;;;;;;;10.90;99.90;;;;;;5046962;28;21071;-74
2022/01/03 12:37:48;;;;;;;;;;;10.90;99.90;;;;;;5048471;28;20184;-75
2022/01/03 12:40:17;;;;;;;;;;;10.90;99.90;;;;;;5048228;28;20075;-75
2022/01/03 12:42:55;;;;;;;;;;;10.90;99.90;;;;;;5047644;28;20152;-74
2022/01/03 12:45:47;;;;;;;;;;;10.90;99.90;;;;;;5046719;28;20059;-74
2022/01/03 12:48:19;;;;;;;;;;;10.90;99.90;;;;;;5025849;28;20059;-75
2022/01/03 12:50:47;;;;;;;;;;;10.90;99.90;;;;;;5047873;28;20245;-74
2022/01/03 12:53:39;;;;;;;;;;;10.80;99.90;;;;;;5048541;28;20067;-74
2022/01/03 12:56:06;;;;;;;;;;;10.70;99.90;;;;;;5048225;28;20068;-74
2022/01/03 12:58:41;;;;;;;;;;;10.70;99.90;;;;;;5047361;28;20160;-74
2022/01/03 13:01:10;;;;;;;;;;;10.70;99.90;;;;;;5047677;28;20059;-71
2022/01/03 13:03:43;;;;;;;;;;;10.50;99.90;;;;;;5046773;28;20050;-75
2022/01/03 13:06:11;;;;;;;;;;;10.30;99.90;;;;;;5047825;28;20258;-74
2022/01/03 13:08:39;;;;;;;;;;;10.10;99.90;;;;;;5047376;28;20079;-74
2022/01/03 13:11:08;;;;;;;;;;;10.00;99.90;;;;;;5047684;28;20059;-74
2022/01/03 13:13:35;;;;;;;;;;;10.00;99.90;;;;;;5046124;28;20169;-74
2022/01/03 13:16:17;;;;;;;;;;;10.00;99.90;;;;;;5046953;28;20059;-72
2022/01/03 13:18:47;;;;;;;;;;;10.00;99.90;;;;;;5047930;28;20051;-73
2022/01/03 13:21:14;;;;;;;;;;;10.10;99.90;;;;;;5048698;28;20089;-69
2022/01/03 13:23:51;;;;;;;;;;;10.10;99.90;;;;;;5047752;28;21144;-71
2022/01/03 13:26:18;;;;;;;;;;;10.20;99.90;;;;;;5046444;28;20068;-73
2022/01/03 13:28:45;;;;;;;;;;;10.20;99.90;;;;;;5046656;28;20139;-72
2022/01/03 13:31:12;;;;;;;;;;;10.10;99.90;;;;;;5046735;28;20192;-73
2022/01/03 13:33:41;;;;;;;;;;;10.00;99.90;;;;;;5044723;28;21408;-71
2022/01/03 13:36:14;;;;;;;;;;;10.00;99.90;;;;;;5048062;28;21046;-72
2022/01/03 13:38:42;;;;;;;;;;;10.00;99.90;;;;;;5047457;28;20066;-73
2022/01/03 13:41:16;;;;;;;;;;;10.00;99.90;;;;;;5047057;28;20075;-73
2022/01/03 13:43:48;;;;;;;;;;;9.90;99.90;;;;;;5045305;28;20180;-72
2022/01/03 13:49:12;;;;;;;;;;;9.60;99.90;;;;;;5046161;28;21056;-72
2022/01/03 13:51:44;;;;;;;;;;;9.50;99.90;;;;;;5048594;28;20148;-71
2022/01/03 13:54:21;;;;;;;;;;;9.50;99.90;;;;;;5047675;28;20148;-72
2022/01/03 13:56:48;;;;;;;;;;;9.40;99.90;;;;;;5048162;28;20067;-73
2022/01/03 13:59:15;;;;;;;;;;;9.40;99.90;;;;;;5047459;28;21059;-73
2022/01/03 14:01:42;;;;;;;;;;;9.40;99.90;;;;;;5048640;28;20084;-73
2022/01/03 14:04:09;;;;;;;;;;;9.30;99.90;;;;;;5047606;28;20066;-73
2022/01/03 14:06:36;;;;;;;;;;;9.30;99.90;;;;;;5048450;28;20075;-72
2022/01/03 14:09:11;;;;;;;;;;;9.30;99.90;;;;;;5047980;28;20059;-73
2022/01/03 14:11:38;;;;;;;;;;;9.30;99.90;;;;;;5047990;28;20078;-70
2022/01/03 14:14:09;;;;;;;;;;;9.20;99.90;;;;;;5047441;28;21258;-73
2022/01/03 14:16:50;;;;;;;;;;;9.20;99.90;;;;;;5048470;28;20485;-73
2022/01/03 14:19:17;;;;;;;;;;;9.20;99.90;;;;;;5047811;28;20074;-73
2022/01/03 14:21:44;;;;;;;;;;;9.20;99.90;;;;;;5047618;28;20074;-71
2022/01/03 14:24:13;;;;;;;;;;;9.20;99.90;;;;;;5050164;28;20050;-73
2022/01/03 14:26:41;;;;;;;;;;;9.20;99.90;;;;;;5051569;28;20059;-73
2022/01/03 14:29:10;;;;;;;;;;;9.20;99.90;;;;;;5050423;28;20111;-73
2022/01/03 14:31:41;;;;;;;;;;;9.20;99.90;;;;;;5054291;27;20059;-73
2022/01/03 14:34:08;;;;;;;;;;;9.10;99.90;;;;;;5061296;27;20122;-71
2022/01/03 14:36:38;;;;;;;;;;;9.00;99.90;;;;;;5060622;27;20060;-73
2022/01/03 14:39:05;;;;;;;;;;;9.00;99.90;;;;;;5067325;27;20089;-73
2022/01/03 14:41:34;;;;;;;;;;;8.90;99.90;;;;;;5051466;27;20068;-73
2022/01/03 14:44:02;;;;;;;;;;;8.90;99.90;;;;;;5050791;28;20083;-73
2022/01/03 14:46:30;;;;;;;;;;;8.90;99.90;;;;;;5055738;27;21075;-73
2022/01/03 14:48:57;;;;;;;;;;;8.80;99.90;;;;;;5050291;27;20083;-73
2022/01/03 14:51:33;;;;;;;;;;;8.80;99.90;;;;;;5055044;28;20067;-73
2022/01/03 14:54:09;;;;;;;;;;;8.90;99.90;;;;;;5054821;27;20067;-73
2022/01/03 14:56:38;;;;;;;;;;;8.90;99.90;;;;;;5049080;27;20074;-73
2022/01/03 14:59:08;;;;;;;;;;;8.90;99.90;;;;;;5042644;28;20068;-73